Coldiron, KY (40819)

12:45 PM EDT on October 21, 2014 (GMT -0400)
Harlan | Change Station
CLOSE
Current Station
Airport
Location: Harlan,
Elevation: 1552 ft
Nearby Weather Stations

Elev 1552 ft 36.86 °N, 83.36 °W | Updated 10 minutes ago

Partly Cloudy
Partly Cloudy
57 °F
Feels Like 57 °F
N
6
Wind Variable Wind from NNW

Today
High -- | Low -- °F
--% Chance of Precip.
Yesterday
High -- | Low -- °F
Precip. -- in
7:46 AM 6:49 PM
Waning Crescent, 5% visible
Pressure 30.02 in
Visibility 10.0 miles
Clouds Mostly Cloudy 3900 ft
Mostly Cloudy 4700 ft
Overcast 5000 ft
Dew Point 41 °F
Humidity 55%
Rainfall 0.00 in
Snow Depth Not available.
UV 2 out of 12
Pollen 1.70 out of 12
Air Quality Not available.
Flu Activity Sporadic
METAR KI35 211635Z AUTO 33005KT 10SM BKN039 BKN047 OVC050 14/05 A3002 RMK AO1

More Conditions Fewer Conditions

Pressure 30.02 in
Visibility 10.0 miles
Clouds Mostly Cloudy 3900 ft
Mostly Cloudy 4700 ft
Overcast 5000 ft
Dew Point 41 °F
Humidity 55%
Rainfall 0.00 in
Snow Depth Not available.
UV 2 out of 12
Pollen 1.70 out of 12
Air Quality Not available.
Flu Activity Sporadic
METAR KI35 211635Z AUTO 33005KT 10SM BKN039 BKN047 OVC050 14/05 A3002 RMK AO1

More Conditions Fewer Conditions

10-Day Weather Forecast

Almanac

Astronomy

Oct. 21, 2014 Rise Set
Actual Time 7:46 AM EDT 6:49 PM EDT
Civil Twilight 7:20 AM EDT 7:15 PM EDT
Nautical Twilight 6:50 AM EDT 7:45 PM EDT
Astronomical Twilight 6:20 AM EDT 8:15 PM EDT
Moon 5:33 AM EDT 5:40 PM EDT
Length of Visible Light 11h 55m
Length of Day
11h 02m
Tomorrow will be 2m 11s shorter.
Waning Crescent, 5% of the Moon is Illuminated
Today
Waning Crescent
Oct 23
New
Oct 30
First Quarter
Nov 6
Full
Nov 14
Last Quarter

Today's Extremes

State Highs State Lows

Community

WunderPhotos

Upload Photos

1,763,712 photos uploaded!

Nearby

Snow Depth

Station Depth Elevation
No new snow has been reported.

Earthquake Activity

City Distance Mag. Time & Date
No recent earthquake activity has been reported nearby.
Minimum magnitude displayed is 2.5.

Coastal Water Temperatures

Place Temperature
No Stations Reporting

Nearby Weather Stations